createdAt,value
2018-12-11T00:24:59.174Z,18.63
2018-12-11T00:27:44.937Z,17.90
2018-12-11T00:33:49.175Z,17.10
2018-12-11T00:39:36.737Z,11.37
2018-12-11T00:42:35.242Z,14.17
2018-12-11T00:48:25.078Z,10.57
2018-12-11T00:54:07.282Z,12.40
2018-12-11T00:57:04.879Z,11.87
2018-12-11T01:03:12.224Z,10.43
2018-12-11T01:06:12.404Z,12.40
2018-12-11T01:26:35.157Z,4.67
2018-12-11T01:29:06.420Z,5.87
2018-12-11T01:31:35.482Z,4.43
2018-12-11T01:34:05.034Z,5.53
2018-12-11T01:36:36.947Z,4.43
2018-12-11T01:39:09.606Z,4.57
2018-12-11T01:41:44.546Z,4.50
2018-12-11T01:44:14.813Z,3.20
2018-12-11T01:46:45.332Z,3.70
2018-12-11T01:49:17.284Z,3.60
2018-12-11T01:51:47.298Z,5.93
2018-12-11T01:54:17.605Z,4.73
2018-12-11T01:56:47.230Z,3.53
2018-12-11T01:59:20.249Z,5.37
2018-12-11T02:01:49.974Z,3.57
2018-12-11T02:04:23.285Z,3.77
2018-12-11T02:06:57.817Z,4.47
2018-12-11T02:09:35.150Z,3.10
2018-12-11T02:12:16.523Z,4.77
2018-12-11T02:14:46.625Z,4.40
2018-12-11T02:17:17.390Z,3.73
2018-12-11T02:19:48.187Z,3.70
2018-12-11T02:22:19.056Z,3.70
2018-12-11T02:24:48.330Z,4.57
2018-12-11T02:27:18.059Z,5.97
2018-12-11T02:29:47.875Z,2.90
2018-12-11T02:32:19.157Z,3.57
2018-12-11T02:34:49.123Z,5.70
2018-12-11T02:37:18.313Z,3.33
2018-12-11T02:39:49.172Z,4.33
2018-12-11T02:42:19.639Z,3.97
2018-12-11T02:44:49.974Z,4.53
2018-12-11T02:47:23.819Z,5.83
2018-12-11T02:50:00.512Z,3.83
2018-12-11T02:52:33.096Z,4.10
2018-12-11T02:55:03.456Z,3.67
2018-12-11T02:57:33.258Z,5.33
2018-12-11T03:00:05.999Z,4.03
2018-12-11T03:02:35.806Z,3.63
2018-12-11T03:05:06.024Z,3.93
2018-12-11T03:07:36.230Z,4.23
2018-12-11T03:10:06.629Z,6.70
2018-12-11T03:12:36.980Z,5.03
2018-12-11T03:15:07.603Z,4.83
2018-12-11T03:17:54.691Z,4.23
2018-12-11T03:20:34.036Z,3.77
2018-12-11T03:23:10.932Z,5.03
2018-12-11T03:25:44.370Z,5.30
2018-12-11T03:28:24.825Z,5.43
2018-12-11T03:30:59.564Z,4.83
2018-12-11T03:33:39.402Z,4.37
2018-12-11T03:36:15.708Z,4.53
2018-12-11T03:38:51.954Z,5.07
2018-12-11T03:41:22.426Z,4.30
2018-12-11T03:43:53.542Z,4.33
2018-12-11T03:46:24.959Z,4.00
2018-12-11T03:48:59.164Z,5.60
2018-12-11T03:51:29.139Z,3.53
2018-12-11T03:53:58.977Z,6.60
2018-12-11T03:56:29.832Z,6.03
2018-12-11T03:59:00.732Z,5.37
2018-12-11T04:01:33.804Z,6.20
2018-12-11T04:04:07.667Z,4.20
2018-12-11T04:06:41.675Z,6.13
2018-12-11T04:09:12.853Z,4.93
2018-12-11T04:11:42.255Z,4.80
2018-12-11T04:14:13.502Z,5.80
2018-12-11T04:16:44.851Z,5.47
2018-12-11T04:19:15.532Z,6.20
2018-12-11T04:21:47.149Z,6.43
2018-12-11T04:24:18.149Z,6.13
2018-12-11T04:26:51.635Z,4.33
2018-12-11T04:29:23.141Z,4.27
2018-12-11T04:31:54.029Z,3.40
2018-12-11T04:34:26.895Z,5.27
2018-12-11T04:37:04.953Z,5.80
2018-12-11T04:39:37.567Z,4.43
2018-12-11T04:42:09.763Z,5.83
2018-12-11T04:44:50.779Z,5.17
2018-12-11T04:47:24.310Z,6.63
2018-12-11T04:50:01.025Z,6.17
2018-12-11T04:52:44.436Z,6.20
2018-12-11T04:55:16.467Z,5.77
2018-12-11T04:57:47.562Z,5.17
2018-12-11T05:00:18.970Z,7.53
2018-12-11T05:02:50.627Z,5.37
2018-12-11T05:05:22.118Z,6.17
2018-12-11T05:07:55.920Z,5.10
2018-12-11T05:10:28.361Z,7.27
2018-12-11T05:13:04.478Z,5.03
2018-12-11T05:15:34.053Z,8.00
2018-12-11T05:18:07.535Z,6.73
2018-12-11T05:20:45.021Z,5.70
2018-12-11T05:23:16.567Z,4.20
2018-12-11T05:25:47.530Z,4.37
2018-12-11T05:28:19.928Z,5.17
2018-12-11T05:30:50.810Z,5.77
2018-12-11T05:33:23.626Z,5.10
2018-12-11T05:35:55.530Z,5.83
2018-12-11T05:38:41.018Z,11.63
2018-12-11T05:41:17.300Z,6.13
2018-12-11T05:43:50.950Z,7.20
2018-12-11T05:46:24.521Z,3.00
2018-12-11T05:48:59.885Z,4.40
2018-12-11T05:51:31.834Z,5.83
2018-12-11T05:54:05.833Z,5.30
2018-12-11T07:47:41.440Z,5.50
2018-12-11T07:50:30.585Z,7.53
2018-12-11T17:04:09.366Z,11.03
2018-12-11T17:06:38.253Z,13.70
2018-12-11T17:09:09.558Z,10.70
2018-12-11T17:11:38.379Z,8.57
2018-12-11T17:14:07.299Z,8.67
2018-12-11T17:16:36.113Z,9.17
2018-12-11T17:19:04.936Z,8.50
2018-12-11T17:21:35.267Z,8.27
2018-12-11T17:24:04.239Z,7.70
2018-12-11T17:26:33.109Z,11.20
2018-12-11T17:29:01.970Z,12.23
2018-12-11T17:31:31.890Z,8.17
2018-12-11T17:34:00.797Z,13.40
2018-12-11T17:36:29.609Z,10.43
2018-12-11T17:38:58.958Z,8.23
2018-12-11T17:41:27.808Z,8.53
2018-12-11T17:43:56.646Z,8.97
2018-12-11T17:46:25.617Z,8.03
2018-12-11T17:48:55.689Z,7.67
2018-12-11T17:51:24.571Z,6.07
2018-12-11T17:53:53.468Z,9.87
2018-12-11T17:56:22.374Z,10.60
2018-12-11T17:58:51.258Z,7.97
2018-12-11T18:01:21.562Z,7.00
2018-12-11T18:03:50.494Z,6.57
2018-12-11T18:06:19.378Z,8.00
2018-12-11T18:08:48.230Z,8.47
2018-12-11T18:11:18.362Z,7.70
2018-12-11T18:13:47.259Z,7.57
2018-12-11T18:16:16.170Z,6.20
2018-12-11T18:18:45.471Z,8.27
2018-12-11T18:21:14.349Z,9.40
2018-12-11T18:23:43.267Z,7.73
2018-12-11T18:26:12.147Z,10.23
2018-12-11T18:28:42.395Z,8.07
2018-12-11T18:31:11.323Z,8.37
2018-12-11T18:33:40.180Z,9.03
2018-12-11T18:36:09.013Z,8.13
2018-12-11T18:38:38.890Z,7.80
2018-12-11T18:41:08.062Z,8.50
2018-12-11T18:43:38.349Z,8.00
2018-12-11T18:46:07.296Z,10.50
2018-12-11T18:48:36.182Z,8.43
2018-12-11T18:51:05.297Z,8.90
2018-12-11T18:53:34.182Z,9.23
2018-12-11T18:56:03.014Z,7.53
2018-12-11T18:58:34.365Z,9.17
2018-12-11T19:01:02.930Z,8.37
2018-12-11T19:03:31.815Z,8.60
2018-12-11T19:06:00.714Z,10.90
2018-12-11T19:08:29.582Z,10.23
2018-12-11T19:10:59.856Z,13.17
2018-12-11T19:13:28.746Z,18.40
2018-12-11T19:15:58.235Z,13.00
2018-12-11T19:18:27.336Z,16.40
2018-12-11T19:20:56.214Z,19.23
2018-12-11T19:23:36.348Z,10.27
2018-12-11T19:26:05.351Z,12.83
2018-12-11T19:28:34.204Z,19.00
2018-12-11T19:31:03.513Z,22.80
2018-12-11T19:33:33.597Z,16.77
2018-12-11T19:36:03.068Z,21.77
2018-12-11T19:38:31.948Z,19.10
2018-12-11T19:41:00.867Z,16.73
2018-12-11T19:43:29.722Z,17.63
2018-12-11T19:45:58.609Z,18.87
2018-12-11T19:48:27.545Z,17.27
2018-12-11T19:50:56.377Z,22.03
2018-12-11T19:53:26.795Z,30.93
2018-12-11T19:55:57.786Z,47.13
2018-12-11T19:58:26.647Z,38.93
2018-12-11T20:00:55.550Z,42.77
2018-12-11T20:03:25.687Z,36.87
2018-12-11T20:05:54.609Z,36.17
2018-12-11T20:08:23.475Z,36.20
2018-12-11T20:10:55.677Z,37.83
2018-12-11T20:13:24.716Z,33.97
2018-12-11T20:15:53.569Z,34.23
2018-12-11T20:18:22.560Z,34.53
2018-12-11T20:20:56.315Z,36.37
2018-12-11T20:23:25.203Z,37.63
2018-12-11T20:25:54.174Z,30.40
2018-12-11T20:28:23.018Z,34.93
2018-12-11T20:30:51.934Z,32.33
2018-12-11T20:33:20.805Z,34.57
2018-12-11T20:35:49.970Z,28.53
2018-12-11T20:38:21.299Z,44.93
2018-12-11T20:40:51.514Z,37.73
2018-12-11T20:43:26.673Z,38.93
2018-12-11T20:45:55.687Z,39.03
2018-12-11T20:48:24.847Z,39.00
2018-12-11T20:50:53.790Z,31.93
2018-12-11T20:53:22.683Z,33.50
2018-12-11T20:55:51.694Z,26.10
2018-12-11T20:58:20.602Z,28.63
2018-12-11T21:00:49.780Z,35.60
2018-12-11T21:03:18.781Z,45.87
2018-12-11T21:05:49.077Z,41.93
2018-12-11T21:08:19.491Z,24.83
2018-12-11T21:10:48.305Z,20.83
2018-12-11T21:13:18.948Z,22.43
2018-12-11T21:15:48.007Z,17.80
2018-12-11T21:18:16.856Z,21.97
2018-12-11T21:20:45.737Z,19.63
2018-12-11T21:23:14.574Z,23.53
2018-12-11T21:25:43.421Z,19.73
2018-12-11T21:28:12.265Z,23.23
2018-12-11T21:30:41.133Z,19.73
2018-12-11T21:33:10.597Z,22.93
2018-12-11T21:35:39.450Z,20.90
2018-12-11T21:38:08.333Z,19.70
2018-12-11T21:40:37.187Z,27.37
2018-12-11T21:43:06.021Z,30.23
2018-12-11T21:45:40.282Z,26.63
2018-12-11T21:48:09.187Z,19.87
2018-12-11T21:50:38.037Z,25.87
2018-12-11T21:53:06.854Z,19.97
2018-12-11T21:55:35.877Z,18.23
2018-12-11T21:58:04.778Z,19.07
2018-12-11T22:00:33.669Z,16.87
2018-12-11T22:03:02.574Z,19.97
2018-12-11T22:05:31.409Z,16.70
2018-12-11T22:08:00.233Z,17.90
2018-12-11T22:10:30.123Z,15.90
2018-12-11T22:12:58.986Z,16.97
2018-12-11T22:15:27.810Z,15.57
2018-12-11T22:17:56.669Z,19.87
2018-12-11T22:20:25.577Z,14.57
2018-12-11T22:22:54.431Z,17.07
2018-12-11T22:25:23.342Z,16.73
2018-12-11T22:27:52.198Z,19.50
2018-12-11T22:30:21.193Z,16.07
2018-12-11T22:32:50.268Z,18.20
2018-12-11T22:35:19.191Z,19.40
2018-12-11T22:37:48.032Z,16.67
2018-12-11T22:40:16.938Z,13.93
2018-12-11T22:42:52.098Z,12.33
2018-12-11T22:45:20.953Z,15.70
2018-12-11T22:47:49.773Z,11.60
2018-12-11T22:50:18.592Z,10.27
2018-12-11T22:52:48.082Z,9.30
2018-12-11T22:55:17.128Z,8.27
2018-12-11T22:57:45.968Z,6.03
2018-12-11T23:00:14.878Z,9.47
2018-12-11T23:02:44.563Z,5.67
2018-12-11T23:05:13.488Z,7.40
2018-12-11T23:07:42.401Z,6.57
2018-12-11T23:10:11.290Z,5.83
2018-12-11T23:12:40.157Z,6.60
2018-12-11T23:15:09.118Z,8.60
2018-12-11T23:17:40.041Z,9.40
2018-12-11T23:20:08.985Z,6.20
2018-12-11T23:22:37.847Z,7.40
2018-12-11T23:25:07.177Z,4.53
2018-12-11T23:27:36.060Z,5.30
2018-12-11T23:30:05.676Z,5.87
2018-12-11T23:32:34.614Z,7.30
2018-12-11T23:35:03.690Z,5.57
2018-12-11T23:37:32.590Z,7.73
2018-12-11T23:40:01.456Z,7.57
2018-12-11T23:42:30.366Z,5.57
2018-12-11T23:44:59.192Z,5.20
2018-12-11T23:47:28.034Z,6.07
2018-12-11T23:49:57.025Z,6.10
2018-12-11T23:52:25.911Z,8.27
2018-12-11T23:54:54.758Z,4.27
2018-12-11T23:57:23.676Z,8.13
2018-12-11T23:59:52.615Z,6.47
